Sunflower Gold — JD2460 — position and weather

sailwx.info

Track history (hours):
 
Tides and Currents Weather Stations Pressure Air Temp Water Temp Dewpoint Dewpoint Depression Visibility Wind Speed Wind Dir Waves Ship Positions

Sunflower Gold

Last reported at 2015-May-27 11:21 UTC. Time now 2015-May-28 08:02 UTC.
Position N 34°35' E 134°52'.

Length 166 m; draft 5.8 m.

Type: Passenger vessel. MMSI: 431000331.

Date/timePositionNaut miles runAvg speedWind from/ knotsBaromVisibWave heightAir tempDewpointWater temp
2015-May-27 11:21N 34°35' E 134°52'1619.9
2015-May-27 10:33N 34°36' E 135°11'8 6.3
2015-May-27 09:22N 34°42' E 135°17'0 0.0
2015-May-27 08:28N 34°42' E 135°17'0 0.0
2015-May-27 07:28N 34°42' E 135°17'0 0.0
2015-May-27 06:16N 34°42' E 135°17'0 0.0
2015-May-27 05:28N 34°42' E 135°17'0 0.0
2015-May-27 04:31N 34°42' E 135°17'0 0.0
2015-May-27 03:31N 34°42' E 135°17'0 0.0
2015-May-27 02:25N 34°42' E 135°17'0 0.0
2015-May-27 01:31N 34°42' E 135°17'0 0.0
2015-May-27 00:31N 34°42' E 135°17'0 0.0
2015-May-26 23:25N 34°42' E 135°17'0 0.0
2015-May-26 22:31N 34°42' E 135°17'0 0.0
2015-May-26 21:33N 34°42' E 135°17'1212.6
2015-May-26 20:33N 34°35' E 135°04'7 0.2
2015-May-25 11:21N 34°37' E 134°55'1619.5
2015-May-25 10:33N 34°36' E 135°14'6 5.3
2015-May-25 09:28N 34°42' E 135°17'0 0.0
2015-May-25 08:28N 34°42' E 135°17'0 0.0
2015-May-25 07:22N 34°42' E 135°17'0 0.0
2015-May-25 06:28N 34°42' E 135°17'0 0.0
2015-May-25 05:28N 34°42' E 135°17'0 0.0
2015-May-25 04:28N 34°42' E 135°17'0 0.0
2015-May-25 03:28N 34°42' E 135°17'0 0.0
2015-May-25 02:28N 34°42' E 135°17'0 0.0
2015-May-25 01:28N 34°42' E 135°17'0 0.0
2015-May-25 00:22N 34°42' E 135°17'0 0.0
2015-May-24 23:22N 34°42' E 135°17'0 0.0
2015-May-24 22:22N 34°42' E 135°17'0 0.0
2015-May-24 21:33N 34°42' E 135°17'1211.7
2015-May-24 20:33N 34°35' E 135°06'2 0.1
2015-May-23 11:33N 34°36' E 135°07'1010.0
2015-May-23 10:33N 34°42' E 135°17'0 0.0
2015-May-23 09:28N 34°42' E 135°17'0 0.0
2015-May-23 08:28N 34°42' E 135°17'0 0.0
2015-May-23 07:22N 34°42' E 135°17'0 0.0
2015-May-23 06:28N 34°42' E 135°17'0 0.0
2015-May-23 05:28N 34°42' E 135°17'0 0.0
2015-May-23 04:22N 34°42' E 135°17'0 0.0
2015-May-23 03:28N 34°42' E 135°17'0 0.0
2015-May-23 02:28N 34°42' E 135°17'0 0.0
2015-May-23 01:22N 34°42' E 135°17'0 0.0
2015-May-23 00:28N 34°42' E 135°17'0 0.0
2015-May-22 23:28N 34°42' E 135°17'1 1.3
2015-May-22 22:33N 34°41' E 135°18'1413.6
2015-May-22 21:33N 34°36' E 135°03'1917.9
2015-May-22 20:29N 34°30' E 134°41'7 0.2
2015-May-21 11:32N 34°33' E 134°48'2020.3
2015-May-21 10:33N 34°36' E 135°12'7 6.9
2015-May-21 09:32N 34°42' E 135°17'0 0.0
2015-May-21 08:26N 34°42' E 135°17'0 0.0
2015-May-21 07:20N 34°42' E 135°17'0 0.0
2015-May-21 06:26N 34°42' E 135°17'0 0.0
2015-May-21 05:26N 34°42' E 135°17'0 0.0
2015-May-21 04:32N 34°42' E 135°17'0 0.0
2015-May-21 03:32N 34°42' E 135°17'0 0.0
2015-May-21 02:32N 34°42' E 135°17'0 0.0
2015-May-21 01:32N 34°42' E 135°17'0 0.0
2015-May-21 00:32N 34°42' E 135°17'0 0.0
2015-May-20 23:32N 34°42' E 135°17'0 0.0
2015-May-20 22:32N 34°42' E 135°17'0 0.0
2015-May-20 21:33N 34°42' E 135°17'1212.2
2015-May-20 20:33N 34°34' E 135°05'9 0.3
2015-May-19 11:13N 34°36' E 134°55'1420.4
2015-May-19 10:33N 34°37' E 135°12'7 6.9
2015-May-19 09:33N 34°42' E 135°17'0 0.0
2015-May-19 08:33N 34°42' E 135°17'0 0.0
2015-May-19 07:21N 34°42' E 135°17'0 0.0
2015-May-19 06:33N 34°42' E 135°17'0 0.0
2015-May-19 05:27N 34°42' E 135°17'0 0.0
2015-May-19 04:27N 34°42' E 135°17'0 0.0
2015-May-19 03:33N 34°42' E 135°17'0 0.0
2015-May-19 02:33N 34°42' E 135°17'0 0.0
2015-May-19 01:21N 34°42' E 135°17'0 0.0
2015-May-19 00:33N 34°42' E 135°17'0 0.0
2015-May-18 23:33N 34°42' E 135°17'0 0.0
2015-May-18 22:27N 34°42' E 135°17'0 0.0
2015-May-18 21:33N 34°42' E 135°17'1211.8
2015-May-18 20:33N 34°35' E 135°06'  
Track history (hours):
 
Tides and Currents Weather Stations Pressure Air Temp Water Temp Dewpoint Dewpoint Depression Visibility Wind Speed Wind Dir Waves Ship Positions

Sunflower Gold

Last reported at 2015-May-27 11:21 UTC. Time now 2015-May-28 08:02 UTC.
Position N 34°35' E 134°52'.

Length 166 m; draft 5.8 m.

Type: Passenger vessel. MMSI: 431000331.

Date/timePositionNaut miles runAvg speedWind from/ knotsBaromVisibWave heightAir tempDewpointWater temp
2015-May-27 11:21N 34°35' E 134°52'1619.9
2015-May-27 10:33N 34°36' E 135°11'8 6.3
2015-May-27 09:22N 34°42' E 135°17'0 0.0
2015-May-27 08:28N 34°42' E 135°17'0 0.0
2015-May-27 07:28N 34°42' E 135°17'0 0.0
2015-May-27 06:16N 34°42' E 135°17'0 0.0
2015-May-27 05:28N 34°42' E 135°17'0 0.0
2015-May-27 04:31N 34°42' E 135°17'0 0.0
2015-May-27 03:31N 34°42' E 135°17'0 0.0
2015-May-27 02:25N 34°42' E 135°17'0 0.0
2015-May-27 01:31N 34°42' E 135°17'0 0.0
2015-May-27 00:31N 34°42' E 135°17'0 0.0
2015-May-26 23:25N 34°42' E 135°17'0 0.0
2015-May-26 22:31N 34°42' E 135°17'0 0.0
2015-May-26 21:33N 34°42' E 135°17'1212.6
2015-May-26 20:33N 34°35' E 135°04'7 0.2
2015-May-25 11:21N 34°37' E 134°55'1619.5
2015-May-25 10:33N 34°36' E 135°14'6 5.3
2015-May-25 09:28N 34°42' E 135°17'0 0.0
2015-May-25 08:28N 34°42' E 135°17'0 0.0
2015-May-25 07:22N 34°42' E 135°17'0 0.0
2015-May-25 06:28N 34°42' E 135°17'0 0.0
2015-May-25 05:28N 34°42' E 135°17'0 0.0
2015-May-25 04:28N 34°42' E 135°17'0 0.0
2015-May-25 03:28N 34°42' E 135°17'0 0.0
2015-May-25 02:28N 34°42' E 135°17'0 0.0
2015-May-25 01:28N 34°42' E 135°17'0 0.0
2015-May-25 00:22N 34°42' E 135°17'0 0.0
2015-May-24 23:22N 34°42' E 135°17'0 0.0
2015-May-24 22:22N 34°42' E 135°17'0 0.0
2015-May-24 21:33N 34°42' E 135°17'1211.7
2015-May-24 20:33N 34°35' E 135°06'2 0.1
2015-May-23 11:33N 34°36' E 135°07'1010.0
2015-May-23 10:33N 34°42' E 135°17'0 0.0
2015-May-23 09:28N 34°42' E 135°17'0 0.0
2015-May-23 08:28N 34°42' E 135°17'0 0.0
2015-May-23 07:22N 34°42' E 135°17'0 0.0
2015-May-23 06:28N 34°42' E 135°17'0 0.0
2015-May-23 05:28N 34°42' E 135°17'0 0.0
2015-May-23 04:22N 34°42' E 135°17'0 0.0
2015-May-23 03:28N 34°42' E 135°17'0 0.0
2015-May-23 02:28N 34°42' E 135°17'0 0.0
2015-May-23 01:22N 34°42' E 135°17'0 0.0
2015-May-23 00:28N 34°42' E 135°17'0 0.0
2015-May-22 23:28N 34°42' E 135°17'1 1.3
2015-May-22 22:33N 34°41' E 135°18'1413.6
2015-May-22 21:33N 34°36' E 135°03'1917.9
2015-May-22 20:29N 34°30' E 134°41'7 0.2
2015-May-21 11:32N 34°33' E 134°48'2020.3
2015-May-21 10:33N 34°36' E 135°12'7 6.9
2015-May-21 09:32N 34°42' E 135°17'0 0.0
2015-May-21 08:26N 34°42' E 135°17'0 0.0
2015-May-21 07:20N 34°42' E 135°17'0 0.0
2015-May-21 06:26N 34°42' E 135°17'0 0.0
2015-May-21 05:26N 34°42' E 135°17'0 0.0
2015-May-21 04:32N 34°42' E 135°17'0 0.0
2015-May-21 03:32N 34°42' E 135°17'0 0.0
2015-May-21 02:32N 34°42' E 135°17'0 0.0
2015-May-21 01:32N 34°42' E 135°17'0 0.0
2015-May-21 00:32N 34°42' E 135°17'0 0.0
2015-May-20 23:32N 34°42' E 135°17'0 0.0
2015-May-20 22:32N 34°42' E 135°17'0 0.0
2015-May-20 21:33N 34°42' E 135°17'1212.2
2015-May-20 20:33N 34°34' E 135°05'9 0.3
2015-May-19 11:13N 34°36' E 134°55'1420.4
2015-May-19 10:33N 34°37' E 135°12'7 6.9
2015-May-19 09:33N 34°42' E 135°17'0 0.0
2015-May-19 08:33N 34°42' E 135°17'0 0.0
2015-May-19 07:21N 34°42' E 135°17'0 0.0
2015-May-19 06:33N 34°42' E 135°17'0 0.0
2015-May-19 05:27N 34°42' E 135°17'0 0.0
2015-May-19 04:27N 34°42' E 135°17'0 0.0
2015-May-19 03:33N 34°42' E 135°17'0 0.0
2015-May-19 02:33N 34°42' E 135°17'0 0.0
2015-May-19 01:21N 34°42' E 135°17'0 0.0
2015-May-19 00:33N 34°42' E 135°17'0 0.0
2015-May-18 23:33N 34°42' E 135°17'0 0.0
2015-May-18 22:27N 34°42' E 135°17'0 0.0
2015-May-18 21:33N 34°42' E 135°17'1211.8
2015-May-18 20:33N 34°35' E 135°06'  

Dump ship's entire track history